createdAt,value
2024-01-14T00:01:19.134Z,1.95
2024-01-14T00:04:21.614Z,2.42
2024-01-14T00:07:24.090Z,2.50
2024-01-14T00:10:26.575Z,1.83
2024-01-14T00:13:28.961Z,2.53
2024-01-14T00:16:35.564Z,2.17
2024-01-14T00:19:38.377Z,2.33
2024-01-14T00:22:40.883Z,2.60
2024-01-14T00:25:43.294Z,2.00
2024-01-14T00:28:45.702Z,2.65
2024-01-14T00:31:48.116Z,2.63
2024-01-14T00:34:50.555Z,2.47
2024-01-14T00:37:53.249Z,1.83
2024-01-14T00:40:55.958Z,2.27
2024-01-14T00:43:58.404Z,2.53
2024-01-14T00:47:01.321Z,2.42
2024-01-14T00:50:03.971Z,2.83
2024-01-14T00:53:06.397Z,2.28
2024-01-14T00:56:08.788Z,2.17
2024-01-14T00:59:11.340Z,2.20
2024-01-14T01:02:13.822Z,2.58
2024-01-14T01:05:16.424Z,2.85
2024-01-14T01:08:18.949Z,2.63
2024-01-14T01:11:21.406Z,2.40
2024-01-14T01:14:23.779Z,3.35
2024-01-14T01:17:26.262Z,3.53
2024-01-14T01:20:28.638Z,2.63
2024-01-14T01:23:31.045Z,2.38
2024-01-14T01:26:33.482Z,4.30
2024-01-14T01:29:36.015Z,3.13
2024-01-14T01:32:38.571Z,2.47
2024-01-14T01:35:41.261Z,2.35
2024-01-14T01:38:43.688Z,2.05
2024-01-14T01:41:46.155Z,2.00
2024-01-14T01:44:48.622Z,2.42
2024-01-14T01:47:51.258Z,3.05
2024-01-14T01:50:56.032Z,1.92
2024-01-14T01:53:59.197Z,2.08
2024-01-14T01:57:01.619Z,2.47
2024-01-14T02:00:04.801Z,2.50
2024-01-14T02:03:14.888Z,2.28
2024-01-14T02:06:17.854Z,2.22
2024-01-14T02:09:20.715Z,2.08
2024-01-14T02:12:23.177Z,1.77
2024-01-14T02:15:25.725Z,2.10
2024-01-14T02:18:28.291Z,2.08
2024-01-14T02:21:43.016Z,2.25
2024-01-14T02:24:46.539Z,2.13
2024-01-14T02:27:49.857Z,2.33
2024-01-14T02:30:52.682Z,2.83
2024-01-14T02:33:55.263Z,2.10
2024-01-14T02:36:57.800Z,2.58
2024-01-14T02:40:00.362Z,2.15
2024-01-14T02:43:02.855Z,2.13
2024-01-14T02:46:05.344Z,2.28
2024-01-14T02:49:07.872Z,1.65
2024-01-14T02:52:10.558Z,2.55
2024-01-14T02:55:13.088Z,2.30
2024-01-14T02:58:15.546Z,2.93
2024-01-14T03:01:18.101Z,2.78
2024-01-14T03:04:20.594Z,2.28
2024-01-14T03:07:23.010Z,3.28
2024-01-14T03:10:25.415Z,3.10
2024-01-14T03:13:29.279Z,2.17
2024-01-14T03:16:31.653Z,3.15
2024-01-14T03:19:34.413Z,3.38
2024-01-14T03:22:36.899Z,3.20
2024-01-14T03:25:39.457Z,3.00
2024-01-14T03:28:41.823Z,2.67
2024-01-14T03:31:44.239Z,2.10
2024-01-14T03:34:46.616Z,2.88
2024-01-14T03:37:49.494Z,2.25
2024-01-14T03:40:51.893Z,1.73
2024-01-14T03:43:54.313Z,1.90
2024-01-14T03:46:56.849Z,2.08
2024-01-14T03:49:59.266Z,1.55
2024-01-14T03:53:01.774Z,2.33
2024-01-14T03:56:04.412Z,2.05
2024-01-14T03:59:07.314Z,2.00
2024-01-14T04:02:09.869Z,1.80
2024-01-14T04:05:12.315Z,1.50
2024-01-14T04:08:14.703Z,2.10
2024-01-14T04:11:17.080Z,2.08
2024-01-14T04:14:19.453Z,1.67
2024-01-14T04:17:21.835Z,1.60
2024-01-14T04:20:25.461Z,1.73
2024-01-14T04:23:28.112Z,1.65
2024-01-14T04:26:31.216Z,1.75
2024-01-14T04:29:33.689Z,1.60
2024-01-14T04:32:36.651Z,2.05
2024-01-14T04:35:39.771Z,2.20
2024-01-14T04:38:42.551Z,2.20
2024-01-14T04:41:44.987Z,1.95
2024-01-14T04:44:47.412Z,2.10
2024-01-14T04:47:50.042Z,2.20
2024-01-14T04:50:53.008Z,1.63
2024-01-14T04:53:55.675Z,1.85
2024-01-14T04:56:59.105Z,2.00
2024-01-14T05:00:01.564Z,2.20
2024-01-14T05:03:04.351Z,2.28
2024-01-14T05:06:07.002Z,2.90
2024-01-14T05:09:09.676Z,2.08
2024-01-14T05:12:12.089Z,3.90
2024-01-14T05:15:14.595Z,1.93
2024-01-14T05:18:17.273Z,1.63
2024-01-14T05:21:23.609Z,1.83
2024-01-14T05:24:25.976Z,2.03
2024-01-14T05:27:28.434Z,1.73
2024-01-14T05:30:31.163Z,1.87
2024-01-14T05:33:33.679Z,1.70
2024-01-14T05:36:37.364Z,2.00
2024-01-14T05:39:40.060Z,1.45
2024-01-14T05:42:43.908Z,2.28
2024-01-14T05:45:47.055Z,1.93
2024-01-14T05:48:49.671Z,2.05
2024-01-14T05:51:52.202Z,2.13
2024-01-14T05:54:54.606Z,2.20
2024-01-14T05:57:57.056Z,1.98
2024-01-14T06:01:00.052Z,2.00
2024-01-14T06:04:02.643Z,2.25
2024-01-14T06:07:05.340Z,2.75
2024-01-14T06:10:09.574Z,2.17
2024-01-14T06:13:11.952Z,3.08
2024-01-14T06:16:14.575Z,2.37
2024-01-14T06:19:17.907Z,2.15
2024-01-14T06:22:20.397Z,2.28
2024-01-14T06:25:22.803Z,2.15
2024-01-14T06:28:25.310Z,2.13
2024-01-14T06:31:27.922Z,2.93
2024-01-14T06:34:30.611Z,3.05
2024-01-14T06:37:33.126Z,2.35
2024-01-14T06:40:41.190Z,2.25
2024-01-14T06:43:46.064Z,2.60
2024-01-14T06:46:49.495Z,3.00
2024-01-14T06:49:59.207Z,2.53
2024-01-14T06:53:09.529Z,3.97
2024-01-14T06:56:12.062Z,3.90
2024-01-14T06:59:16.076Z,3.20
2024-01-14T07:02:18.480Z,2.60
2024-01-14T07:05:20.917Z,3.28
2024-01-14T07:08:23.329Z,3.25
2024-01-14T07:11:25.858Z,3.08
2024-01-14T07:14:28.207Z,2.70
2024-01-14T07:17:53.516Z,2.67
2024-01-14T07:20:53.566Z,2.15
2024-01-14T07:23:56.805Z,2.58
2024-01-14T07:27:00.035Z,2.50
2024-01-14T07:30:02.950Z,2.00
2024-01-14T07:33:05.642Z,2.07
2024-01-14T07:36:09.037Z,2.63
2024-01-14T07:39:11.657Z,3.72
2024-01-14T07:42:14.112Z,3.05
2024-01-14T07:45:16.536Z,1.85
2024-01-14T07:48:19.239Z,3.77
2024-01-14T07:51:23.766Z,2.17
2024-01-14T07:54:26.529Z,2.58
2024-01-14T07:57:29.015Z,2.95
2024-01-14T08:00:31.598Z,2.20
2024-01-14T08:03:34.340Z,2.13
2024-01-14T08:06:36.873Z,2.08
2024-01-14T08:09:39.371Z,2.45
2024-01-14T08:12:42.626Z,2.45
2024-01-14T08:15:53.923Z,2.50
2024-01-14T08:19:04.637Z,2.53
2024-01-14T08:22:07.210Z,3.42
2024-01-14T08:25:10.884Z,2.67
2024-01-14T08:28:13.379Z,2.75
2024-01-14T08:31:15.870Z,2.65
2024-01-14T08:34:18.487Z,2.70
2024-01-14T08:37:20.923Z,2.42
2024-01-14T08:40:23.337Z,2.28
2024-01-14T08:43:25.756Z,3.03
2024-01-14T08:46:28.386Z,3.28
2024-01-14T08:49:31.740Z,3.33
2024-01-14T08:52:34.579Z,2.83
2024-01-14T08:55:37.036Z,1.92
2024-01-14T08:58:39.460Z,2.30
2024-01-14T09:01:41.947Z,2.15
2024-01-14T09:04:44.344Z,2.03
2024-01-14T09:07:46.809Z,1.88
2024-01-14T09:10:50.648Z,1.75
2024-01-14T09:13:53.277Z,2.28
2024-01-14T09:16:55.677Z,2.58
2024-01-14T09:19:58.256Z,1.93
2024-01-14T09:23:00.774Z,1.60
2024-01-14T09:26:03.244Z,1.90
2024-01-14T09:29:05.666Z,2.47
2024-01-14T09:32:08.384Z,2.05
2024-01-14T09:35:13.571Z,2.10
2024-01-14T09:38:16.020Z,2.08
2024-01-14T09:41:28.659Z,1.42
2024-01-14T09:44:31.086Z,2.03
2024-01-14T09:47:34.496Z,2.53
2024-01-14T09:50:37.729Z,1.67
2024-01-14T09:53:41.544Z,1.80
2024-01-14T09:56:45.749Z,2.17
2024-01-14T09:59:51.015Z,1.63
2024-01-14T10:02:53.391Z,2.30
2024-01-14T10:05:56.604Z,1.90
2024-01-14T10:08:59.778Z,2.97
2024-01-14T10:12:02.226Z,2.80
2024-01-14T10:15:06.038Z,2.33
2024-01-14T10:18:08.539Z,3.63
2024-01-14T10:21:11.138Z,3.70
2024-01-14T10:24:13.582Z,7.05
2024-01-14T10:27:33.674Z,5.15
2024-01-14T10:30:39.900Z,6.03
2024-01-14T10:33:42.545Z,6.30
2024-01-14T10:36:45.215Z,5.30
2024-01-14T10:39:47.591Z,4.57
2024-01-14T10:42:50.001Z,4.10
2024-01-14T10:45:53.673Z,2.67
2024-01-14T10:49:08.131Z,4.28
2024-01-14T10:52:14.259Z,3.10
2024-01-14T10:55:42.832Z,4.53
2024-01-14T10:58:46.675Z,2.28
2024-01-14T11:01:50.940Z,2.00
2024-01-14T11:04:53.458Z,1.92
2024-01-14T11:07:55.927Z,2.00
2024-01-14T11:10:58.927Z,1.80
2024-01-14T11:14:15.636Z,2.58
2024-01-14T11:17:33.245Z,1.65
2024-01-14T11:20:47.442Z,1.70
2024-01-14T11:24:00.816Z,1.87
2024-01-14T11:27:13.138Z,1.90
2024-01-14T11:30:20.105Z,2.42
2024-01-14T11:33:41.916Z,1.60
2024-01-14T11:36:57.761Z,1.65
2024-01-14T11:40:19.354Z,2.57
2024-01-14T11:43:26.595Z,2.60
2024-01-14T11:46:35.074Z,1.85
2024-01-14T11:49:37.614Z,1.98
2024-01-14T11:52:47.696Z,2.10
2024-01-14T11:55:50.452Z,1.50
2024-01-14T11:58:52.845Z,1.23
2024-01-14T12:01:58.058Z,1.48
2024-01-14T12:05:21.265Z,1.80
2024-01-14T12:08:24.791Z,1.30
2024-01-14T12:11:27.231Z,2.30
2024-01-14T12:14:29.693Z,1.80
2024-01-14T12:17:33.142Z,2.65
2024-01-14T12:20:35.762Z,2.28
2024-01-14T12:23:38.314Z,2.00
2024-01-14T12:26:46.826Z,1.80
2024-01-14T12:29:49.269Z,1.92
2024-01-14T12:32:51.734Z,2.95
2024-01-14T12:35:54.277Z,2.53
2024-01-14T12:38:56.742Z,2.45
2024-01-14T12:41:59.238Z,2.97
2024-01-14T12:45:02.425Z,3.10
2024-01-14T12:48:06.029Z,3.45
2024-01-14T12:51:08.849Z,2.13
2024-01-14T12:54:25.738Z,2.28
2024-01-14T12:57:29.527Z,1.77
2024-01-14T13:00:32.673Z,2.03
2024-01-14T13:03:37.730Z,1.92
2024-01-14T13:06:40.311Z,1.60
2024-01-14T13:09:43.654Z,1.75
2024-01-14T13:12:46.499Z,2.17
2024-01-14T13:15:49.015Z,2.25
2024-01-14T13:18:51.647Z,1.92
2024-01-14T13:21:54.208Z,1.75
2024-01-14T13:24:56.689Z,1.85
2024-01-14T13:27:59.223Z,1.80
2024-01-14T13:31:01.759Z,2.05
2024-01-14T13:34:07.176Z,1.67
2024-01-14T13:37:10.407Z,2.10
2024-01-14T13:40:13.821Z,1.98
2024-01-14T13:43:16.343Z,2.03
2024-01-14T13:46:18.734Z,2.15
2024-01-14T13:49:21.412Z,1.60
2024-01-14T13:52:24.387Z,1.70
2024-01-14T13:55:27.009Z,1.50
2024-01-14T13:58:29.440Z,1.93
2024-01-14T14:01:31.932Z,2.40
2024-01-14T14:04:34.677Z,1.80
2024-01-14T14:07:38.495Z,1.85
2024-01-14T14:10:47.420Z,1.35
2024-01-14T14:13:52.399Z,2.27
2024-01-14T14:16:54.797Z,1.50
2024-01-14T14:19:57.415Z,2.08
2024-01-14T14:23:00.012Z,1.55
2024-01-14T14:26:02.417Z,2.00
2024-01-14T14:29:05.935Z,2.20
2024-01-14T14:32:09.069Z,2.00
2024-01-14T14:35:14.251Z,2.15
2024-01-14T14:38:16.966Z,2.00
2024-01-14T14:41:27.279Z,1.80
2024-01-14T14:44:35.927Z,1.57
2024-01-14T14:47:39.121Z,1.50
2024-01-14T14:50:41.707Z,1.48
2024-01-14T14:53:44.192Z,1.42
2024-01-14T14:56:46.687Z,1.67
2024-01-14T14:59:49.138Z,1.63
2024-01-14T15:02:51.613Z,1.85
2024-01-14T15:05:54.101Z,1.58
2024-01-14T15:08:56.539Z,1.70
2024-01-14T15:11:58.985Z,2.50
2024-01-14T15:15:01.600Z,1.80
2024-01-14T15:18:04.644Z,1.88
2024-01-14T15:21:07.468Z,1.75
2024-01-14T15:24:11.921Z,1.73
2024-01-14T15:27:14.646Z,1.83
2024-01-14T15:30:17.225Z,1.90
2024-01-14T15:33:19.991Z,2.17
2024-01-14T15:36:23.806Z,1.60
2024-01-14T15:39:26.678Z,1.77
2024-01-14T15:42:29.304Z,1.80
2024-01-14T15:45:31.744Z,1.50
2024-01-14T15:48:39.976Z,1.85
2024-01-14T15:51:42.914Z,3.30
2024-01-14T15:54:45.500Z,2.65
2024-01-14T15:57:48.986Z,3.00
2024-01-14T16:01:03.149Z,3.80
2024-01-14T16:04:11.842Z,5.15
2024-01-14T16:07:14.355Z,3.15
2024-01-14T16:10:17.082Z,5.85
2024-01-14T16:13:19.569Z,5.75
2024-01-14T16:16:22.197Z,6.00
2024-01-14T16:19:24.719Z,5.18
2024-01-14T16:22:27.125Z,4.53
2024-01-14T16:25:29.514Z,4.45
2024-01-14T16:28:32.819Z,3.25
2024-01-14T16:31:35.574Z,2.90
2024-01-14T16:34:38.140Z,2.97
2024-01-14T16:37:40.637Z,2.88
2024-01-14T16:40:48.128Z,2.63
2024-01-14T16:43:56.006Z,2.35
2024-01-14T16:46:58.430Z,2.30
2024-01-14T16:50:04.978Z,3.15
2024-01-14T16:53:08.853Z,2.63
2024-01-14T16:56:15.863Z,5.38
2024-01-14T16:59:18.523Z,3.50
2024-01-14T17:02:21.064Z,3.97
2024-01-14T17:05:23.479Z,3.38
2024-01-14T17:08:25.907Z,3.92
2024-01-14T17:11:28.311Z,3.70
2024-01-14T17:14:31.271Z,4.53
2024-01-14T17:17:34.617Z,4.23
2024-01-14T17:20:37.257Z,3.75
2024-01-14T17:23:39.806Z,4.93
2024-01-14T17:26:42.368Z,3.03
2024-01-14T17:29:44.827Z,4.07
2024-01-14T17:32:47.321Z,3.20
2024-01-14T17:36:00.491Z,4.57
2024-01-14T17:39:07.297Z,3.70
2024-01-14T17:42:09.822Z,4.10
2024-01-14T17:45:12.521Z,4.80
2024-01-14T17:48:15.019Z,5.33
2024-01-14T17:51:19.672Z,5.78
2024-01-14T17:54:22.236Z,5.90
2024-01-14T17:57:24.996Z,6.38
2024-01-14T18:00:27.844Z,5.72
2024-01-14T18:03:30.926Z,3.73
2024-01-14T18:06:33.863Z,5.35
2024-01-14T18:09:36.337Z,3.92
2024-01-14T18:12:39.022Z,3.95
2024-01-14T18:15:46.734Z,3.20
2024-01-14T18:18:52.471Z,4.87
2024-01-14T18:21:55.274Z,4.13
2024-01-14T18:24:57.862Z,3.38
2024-01-14T18:28:00.258Z,4.43
2024-01-14T18:31:03.076Z,3.35
2024-01-14T18:34:05.689Z,3.03
2024-01-14T18:37:08.213Z,3.00
2024-01-14T18:40:11.924Z,3.67
2024-01-14T18:43:14.446Z,4.57
2024-01-14T18:46:16.956Z,4.32
2024-01-14T18:49:19.660Z,3.30
2024-01-14T18:52:24.285Z,3.92
2024-01-14T18:55:27.159Z,2.92
2024-01-14T18:58:29.613Z,4.18
2024-01-14T19:01:32.212Z,4.20
2024-01-14T19:04:35.066Z,3.00
2024-01-14T19:07:37.788Z,5.38
2024-01-14T19:10:42.458Z,3.92
2024-01-14T19:13:45.371Z,5.30
2024-01-14T19:16:51.239Z,4.88
2024-01-14T19:19:54.100Z,4.80
2024-01-14T19:22:56.959Z,6.30
2024-01-14T19:25:59.922Z,5.50
2024-01-14T19:29:06.722Z,8.68
2024-01-14T19:32:09.567Z,5.75
2024-01-14T19:35:12.106Z,5.97
2024-01-14T19:38:14.826Z,5.65
2024-01-14T19:41:17.372Z,6.30
2024-01-14T19:44:21.567Z,5.85
2024-01-14T19:47:28.860Z,4.40
2024-01-14T19:50:31.501Z,5.30
2024-01-14T19:53:35.336Z,5.40
2024-01-14T19:56:44.495Z,6.25
2024-01-14T19:59:47.310Z,5.03
2024-01-14T20:02:50.188Z,5.32
2024-01-14T20:05:53.115Z,5.10
2024-01-14T20:08:56.552Z,4.93
2024-01-14T20:12:01.456Z,4.70
2024-01-14T20:15:05.064Z,6.30
2024-01-14T20:18:07.957Z,5.60
2024-01-14T20:21:10.731Z,6.00
2024-01-14T20:24:14.488Z,5.78
2024-01-14T20:27:17.360Z,6.35
2024-01-14T20:30:21.359Z,7.75
2024-01-14T20:33:26.889Z,8.50
2024-01-14T20:36:29.787Z,7.80
2024-01-14T20:39:32.626Z,7.10
2024-01-14T20:42:35.209Z,8.13
2024-01-14T20:45:37.728Z,7.38
2024-01-14T20:48:40.591Z,6.85
2024-01-14T20:51:43.507Z,7.73
2024-01-14T20:54:47.281Z,9.30
2024-01-14T20:57:49.945Z,12.32
2024-01-14T21:00:52.574Z,11.18
2024-01-14T21:03:55.855Z,8.40
2024-01-14T21:06:58.498Z,6.80
2024-01-14T21:10:01.044Z,8.27
2024-01-14T21:13:06.369Z,6.47
2024-01-14T21:16:09.049Z,6.35
2024-01-14T21:19:11.682Z,5.68
2024-01-14T21:22:15.616Z,5.43
2024-01-14T21:25:18.023Z,6.00
2024-01-14T21:28:20.888Z,5.80
2024-01-14T21:31:23.331Z,4.47
2024-01-14T21:34:26.529Z,5.13
2024-01-14T21:37:29.042Z,6.33
2024-01-14T21:40:31.611Z,4.80
2024-01-14T21:43:37.976Z,4.93
2024-01-14T21:46:40.811Z,5.78
2024-01-14T21:49:43.563Z,5.57
2024-01-14T21:52:46.015Z,5.60
2024-01-14T21:55:48.913Z,6.85
2024-01-14T21:58:51.313Z,4.72
2024-01-14T22:01:55.262Z,5.70
2024-01-14T22:04:57.836Z,6.07
2024-01-14T22:08:00.971Z,6.60
2024-01-14T22:11:03.512Z,6.90
2024-01-14T22:14:05.968Z,6.90
2024-01-14T22:17:08.534Z,6.85
2024-01-14T22:20:17.826Z,7.25
2024-01-14T22:23:20.226Z,6.87
2024-01-14T22:26:22.603Z,8.00
2024-01-14T22:29:26.413Z,8.65
2024-01-14T22:32:28.823Z,7.85
2024-01-14T22:35:31.693Z,6.75
2024-01-14T22:38:34.100Z,9.60
2024-01-14T22:41:37.609Z,8.02
2024-01-14T22:44:39.977Z,7.80
2024-01-14T22:47:42.446Z,8.25
2024-01-14T22:50:44.932Z,5.65
2024-01-14T22:53:48.801Z,6.43
2024-01-14T22:56:51.201Z,6.35
2024-01-14T22:59:53.710Z,6.15
2024-01-14T23:02:56.678Z,7.63
2024-01-14T23:05:59.170Z,5.53
2024-01-14T23:09:01.655Z,6.57
2024-01-14T23:12:04.919Z,7.63
2024-01-14T23:15:09.140Z,6.57
2024-01-14T23:18:13.081Z,7.05
2024-01-14T23:21:15.743Z,7.63
2024-01-14T23:24:18.208Z,7.83
2024-01-14T23:27:20.985Z,6.13
2024-01-14T23:30:23.961Z,6.90
2024-01-14T23:33:26.569Z,6.85
2024-01-14T23:36:29.187Z,6.82
2024-01-14T23:39:31.643Z,6.43
2024-01-14T23:42:34.114Z,7.88
2024-01-14T23:45:36.621Z,6.63
2024-01-14T23:48:39.216Z,7.05
2024-01-14T23:51:41.866Z,6.38
2024-01-14T23:54:44.431Z,7.60
2024-01-14T23:57:46.940Z,7.50
